sensor_id;sensor_type;location;lat;lon;timestamp;P1;durP1;ratioP1;P2;durP2;ratioP2
49384;SDS011;36795;45.028;38.968;2024-02-23T00:00:41;48.72;;;23.62;;
49384;SDS011;36795;45.028;38.968;2024-02-23T00:03:27;49.47;;;24.58;;
49384;SDS011;36795;45.028;38.968;2024-02-23T00:06:14;47.22;;;23.52;;
49384;SDS011;36795;45.028;38.968;2024-02-23T00:09:01;48.60;;;23.95;;
49384;SDS011;36795;45.028;38.968;2024-02-23T00:14:40;51.20;;;24.15;;
49384;SDS011;36795;45.028;38.968;2024-02-23T00:17:26;51.85;;;24.42;;
49384;SDS011;36795;45.028;38.968;2024-02-23T00:20:13;51.33;;;25.35;;
49384;SDS011;36795;45.028;38.968;2024-02-23T00:23:00;55.42;;;25.55;;
49384;SDS011;36795;45.028;38.968;2024-02-23T00:25:46;50.38;;;24.35;;
49384;SDS011;36795;45.028;38.968;2024-02-23T00:28:33;49.08;;;25.42;;
49384;SDS011;36795;45.028;38.968;2024-02-23T00:31:20;56.63;;;25.08;;
49384;SDS011;36795;45.028;38.968;2024-02-23T00:34:06;49.70;;;25.12;;
49384;SDS011;36795;45.028;38.968;2024-02-23T00:36:56;52.35;;;25.70;;
49384;SDS011;36795;45.028;38.968;2024-02-23T00:42:37;55.12;;;26.02;;
49384;SDS011;36795;45.028;38.968;2024-02-23T00:45:23;53.78;;;25.67;;
49384;SDS011;36795;45.028;38.968;2024-02-23T00:48:09;53.10;;;26.20;;
49384;SDS011;36795;45.028;38.968;2024-02-23T00:50:55;51.20;;;24.98;;
49384;SDS011;36795;45.028;38.968;2024-02-23T00:53:41;53.08;;;26.20;;
49384;SDS011;36795;45.028;38.968;2024-02-23T00:56:27;52.30;;;25.80;;
49384;SDS011;36795;45.028;38.968;2024-02-23T00:59:14;56.40;;;26.25;;
49384;SDS011;36795;45.028;38.968;2024-02-23T01:02:01;50.67;;;25.17;;
49384;SDS011;36795;45.028;38.968;2024-02-23T01:04:48;52.15;;;26.45;;
49384;SDS011;36795;45.028;38.968;2024-02-23T01:07:34;53.47;;;26.70;;
49384;SDS011;36795;45.028;38.968;2024-02-23T01:10:20;49.28;;;25.27;;
49384;SDS011;36795;45.028;38.968;2024-02-23T01:13:06;51.05;;;24.73;;
49384;SDS011;36795;45.028;38.968;2024-02-23T01:15:53;52.05;;;25.88;;
49384;SDS011;36795;45.028;38.968;2024-02-23T01:18:39;57.92;;;27.87;;
49384;SDS011;36795;45.028;38.968;2024-02-23T01:21:25;56.00;;;27.58;;
49384;SDS011;36795;45.028;38.968;2024-02-23T01:27:01;53.15;;;26.48;;
49384;SDS011;36795;45.028;38.968;2024-02-23T01:29:48;56.30;;;26.50;;
49384;SDS011;36795;45.028;38.968;2024-02-23T01:32:34;56.37;;;28.05;;
49384;SDS011;36795;45.028;38.968;2024-02-23T01:35:22;55.42;;;28.67;;
49384;SDS011;36795;45.028;38.968;2024-02-23T01:38:09;56.15;;;29.27;;
49384;SDS011;36795;45.028;38.968;2024-02-23T01:40:54;57.83;;;29.08;;
49384;SDS011;36795;45.028;38.968;2024-02-23T01:43:41;54.15;;;27.62;;
49384;SDS011;36795;45.028;38.968;2024-02-23T01:46:27;57.10;;;26.62;;
49384;SDS011;36795;45.028;38.968;2024-02-23T01:49:14;62.33;;;27.77;;
49384;SDS011;36795;45.028;38.968;2024-02-23T01:52:00;56.42;;;27.15;;
49384;SDS011;36795;45.028;38.968;2024-02-23T01:54:47;61.67;;;26.98;;
49384;SDS011;36795;45.028;38.968;2024-02-23T01:57:33;54.85;;;27.98;;
49384;SDS011;36795;45.028;38.968;2024-02-23T02:00:20;56.72;;;27.85;;
49384;SDS011;36795;45.028;38.968;2024-02-23T02:03:08;52.00;;;26.75;;
49384;SDS011;36795;45.028;38.968;2024-02-23T02:05:54;56.33;;;26.35;;
49384;SDS011;36795;45.028;38.968;2024-02-23T02:08:43;59.83;;;28.75;;
49384;SDS011;36795;45.028;38.968;2024-02-23T02:11:30;56.80;;;29.83;;
49384;SDS011;36795;45.028;38.968;2024-02-23T02:14:17;56.03;;;28.00;;
49384;SDS011;36795;45.028;38.968;2024-02-23T02:17:03;60.20;;;27.55;;
49384;SDS011;36795;45.028;38.968;2024-02-23T02:19:51;56.70;;;26.92;;
49384;SDS011;36795;45.028;38.968;2024-02-23T02:22:38;57.58;;;27.42;;
49384;SDS011;36795;45.028;38.968;2024-02-23T02:25:25;52.55;;;25.50;;
49384;SDS011;36795;45.028;38.968;2024-02-23T02:28:11;57.45;;;27.70;;
49384;SDS011;36795;45.028;38.968;2024-02-23T02:30:57;51.53;;;25.35;;
49384;SDS011;36795;45.028;38.968;2024-02-23T02:33:43;54.65;;;26.83;;
49384;SDS011;36795;45.028;38.968;2024-02-23T02:36:30;54.50;;;27.52;;
49384;SDS011;36795;45.028;38.968;2024-02-23T02:39:16;56.53;;;29.15;;
49384;SDS011;36795;45.028;38.968;2024-02-23T02:42:02;64.35;;;29.58;;
49384;SDS011;36795;45.028;38.968;2024-02-23T02:44:48;55.95;;;27.15;;
49384;SDS011;36795;45.028;38.968;2024-02-23T02:47:34;58.90;;;26.83;;
49384;SDS011;36795;45.028;38.968;2024-02-23T02:50:22;59.55;;;27.20;;
49384;SDS011;36795;45.028;38.968;2024-02-23T02:53:08;61.95;;;27.62;;
49384;SDS011;36795;45.028;38.968;2024-02-23T02:58:47;56.30;;;26.83;;
49384;SDS011;36795;45.028;38.968;2024-02-23T03:01:32;56.17;;;26.98;;
49384;SDS011;36795;45.028;38.968;2024-02-23T03:04:19;53.75;;;26.00;;
49384;SDS011;36795;45.028;38.968;2024-02-23T03:07:04;56.17;;;25.88;;
49384;SDS011;36795;45.028;38.968;2024-02-23T03:09:50;54.08;;;27.85;;
49384;SDS011;36795;45.028;38.968;2024-02-23T03:15:32;56.60;;;26.62;;
49384;SDS011;36795;45.028;38.968;2024-02-23T03:18:18;53.78;;;26.33;;
49384;SDS011;36795;45.028;38.968;2024-02-23T03:21:05;56.92;;;28.60;;
49384;SDS011;36795;45.028;38.968;2024-02-23T03:23:51;55.50;;;26.23;;
49384;SDS011;36795;45.028;38.968;2024-02-23T03:26:38;58.03;;;25.12;;
49384;SDS011;36795;45.028;38.968;2024-02-23T03:29:23;59.30;;;26.83;;
49384;SDS011;36795;45.028;38.968;2024-02-23T03:32:10;57.83;;;25.35;;
49384;SDS011;36795;45.028;38.968;2024-02-23T03:34:55;57.00;;;25.52;;
49384;SDS011;36795;45.028;38.968;2024-02-23T03:37:42;56.13;;;26.52;;
49384;SDS011;36795;45.028;38.968;2024-02-23T03:40:28;58.55;;;27.98;;
49384;SDS011;36795;45.028;38.968;2024-02-23T03:43:16;58.47;;;26.48;;
49384;SDS011;36795;45.028;38.968;2024-02-23T03:46:01;56.45;;;26.45;;
49384;SDS011;36795;45.028;38.968;2024-02-23T03:48:48;60.65;;;27.05;;
49384;SDS011;36795;45.028;38.968;2024-02-23T03:51:34;54.25;;;26.27;;
49384;SDS011;36795;45.028;38.968;2024-02-23T03:54:24;57.53;;;26.37;;
49384;SDS011;36795;45.028;38.968;2024-02-23T03:57:11;56.92;;;26.55;;
49384;SDS011;36795;45.028;38.968;2024-02-23T03:59:57;49.17;;;26.27;;
49384;SDS011;36795;45.028;38.968;2024-02-23T04:02:44;59.78;;;27.75;;
49384;SDS011;36795;45.028;38.968;2024-02-23T04:05:30;56.97;;;26.40;;
49384;SDS011;36795;45.028;38.968;2024-02-23T04:08:15;58.45;;;26.77;;
49384;SDS011;36795;45.028;38.968;2024-02-23T04:11:02;51.67;;;25.08;;
49384;SDS011;36795;45.028;38.968;2024-02-23T04:13:48;60.42;;;26.23;;
49384;SDS011;36795;45.028;38.968;2024-02-23T04:16:34;57.72;;;28.25;;
49384;SDS011;36795;45.028;38.968;2024-02-23T04:19:20;57.35;;;28.48;;
49384;SDS011;36795;45.028;38.968;2024-02-23T04:22:06;57.20;;;27.52;;
49384;SDS011;36795;45.028;38.968;2024-02-23T04:24:56;63.95;;;28.70;;
49384;SDS011;36795;45.028;38.968;2024-02-23T04:27:44;60.58;;;26.80;;
49384;SDS011;36795;45.028;38.968;2024-02-23T04:30:38;54.13;;;25.83;;
49384;SDS011;36795;45.028;38.968;2024-02-23T04:33:24;52.92;;;26.12;;
49384;SDS011;36795;45.028;38.968;2024-02-23T04:36:10;55.25;;;27.95;;
49384;SDS011;36795;45.028;38.968;2024-02-23T04:38:57;62.00;;;28.27;;
49384;SDS011;36795;45.028;38.968;2024-02-23T04:41:43;58.67;;;26.95;;
49384;SDS011;36795;45.028;38.968;2024-02-23T04:44:29;55.88;;;27.17;;
49384;SDS011;36795;45.028;38.968;2024-02-23T04:47:15;66.90;;;27.80;;
49384;SDS011;36795;45.028;38.968;2024-02-23T04:50:01;58.05;;;28.00;;
49384;SDS011;36795;45.028;38.968;2024-02-23T04:52:48;63.90;;;28.12;;
49384;SDS011;36795;45.028;38.968;2024-02-23T04:55:35;61.25;;;29.37;;
49384;SDS011;36795;45.028;38.968;2024-02-23T04:58:21;58.42;;;27.87;;
49384;SDS011;36795;45.028;38.968;2024-02-23T05:01:08;58.28;;;27.90;;
49384;SDS011;36795;45.028;38.968;2024-02-23T05:03:54;60.42;;;27.90;;
49384;SDS011;36795;45.028;38.968;2024-02-23T05:06:40;55.28;;;27.95;;
49384;SDS011;36795;45.028;38.968;2024-02-23T05:09:28;60.03;;;28.85;;
49384;SDS011;36795;45.028;38.968;2024-02-23T05:12:14;65.12;;;28.90;;
49384;SDS011;36795;45.028;38.968;2024-02-23T05:15:00;56.63;;;28.27;;
49384;SDS011;36795;45.028;38.968;2024-02-23T05:17:47;53.65;;;27.52;;
49384;SDS011;36795;45.028;38.968;2024-02-23T05:20:33;62.75;;;29.58;;
49384;SDS011;36795;45.028;38.968;2024-02-23T05:23:19;64.18;;;29.58;;
49384;SDS011;36795;45.028;38.968;2024-02-23T05:26:05;67.05;;;29.48;;
49384;SDS011;36795;45.028;38.968;2024-02-23T05:28:51;64.20;;;31.45;;
49384;SDS011;36795;45.028;38.968;2024-02-23T05:31:47;66.07;;;29.23;;
49384;SDS011;36795;45.028;38.968;2024-02-23T05:34:35;65.10;;;27.98;;
49384;SDS011;36795;45.028;38.968;2024-02-23T05:37:20;57.25;;;28.50;;
49384;SDS011;36795;45.028;38.968;2024-02-23T05:40:07;59.42;;;28.58;;
49384;SDS011;36795;45.028;38.968;2024-02-23T05:42:56;64.57;;;30.48;;
49384;SDS011;36795;45.028;38.968;2024-02-23T05:45:44;53.40;;;27.40;;
49384;SDS011;36795;45.028;38.968;2024-02-23T05:48:30;55.60;;;26.30;;
49384;SDS011;36795;45.028;38.968;2024-02-23T05:51:16;55.12;;;28.67;;
49384;SDS011;36795;45.028;38.968;2024-02-23T05:54:02;57.88;;;28.27;;
49384;SDS011;36795;45.028;38.968;2024-02-23T05:56:49;57.92;;;28.23;;
49384;SDS011;36795;45.028;38.968;2024-02-23T05:59:34;54.85;;;28.73;;
49384;SDS011;36795;45.028;38.968;2024-02-23T06:02:21;59.35;;;30.45;;
49384;SDS011;36795;45.028;38.968;2024-02-23T06:05:08;56.92;;;27.95;;
49384;SDS011;36795;45.028;38.968;2024-02-23T06:07:54;54.20;;;26.75;;
49384;SDS011;36795;45.028;38.968;2024-02-23T06:10:40;58.22;;;28.08;;
49384;SDS011;36795;45.028;38.968;2024-02-23T06:13:27;55.10;;;28.85;;
49384;SDS011;36795;45.028;38.968;2024-02-23T06:16:14;54.97;;;30.23;;
49384;SDS011;36795;45.028;38.968;2024-02-23T06:19:00;54.90;;;28.73;;
49384;SDS011;36795;45.028;38.968;2024-02-23T06:21:48;59.83;;;29.77;;
49384;SDS011;36795;45.028;38.968;2024-02-23T06:24:34;59.47;;;31.45;;
49384;SDS011;36795;45.028;38.968;2024-02-23T06:27:21;57.90;;;28.75;;
49384;SDS011;36795;45.028;38.968;2024-02-23T06:30:07;55.33;;;28.23;;
49384;SDS011;36795;45.028;38.968;2024-02-23T06:32:53;59.63;;;30.65;;
49384;SDS011;36795;45.028;38.968;2024-02-23T06:35:39;55.25;;;29.23;;
49384;SDS011;36795;45.028;38.968;2024-02-23T06:38:25;58.60;;;29.48;;
49384;SDS011;36795;45.028;38.968;2024-02-23T06:41:12;52.85;;;30.60;;
49384;SDS011;36795;45.028;38.968;2024-02-23T06:43:58;60.75;;;29.92;;
49384;SDS011;36795;45.028;38.968;2024-02-23T06:46:43;57.42;;;28.90;;
49384;SDS011;36795;45.028;38.968;2024-02-23T06:49:30;53.90;;;30.23;;
49384;SDS011;36795;45.028;38.968;2024-02-23T06:52:16;59.00;;;31.37;;
49384;SDS011;36795;45.028;38.968;2024-02-23T06:55:03;56.25;;;30.90;;
49384;SDS011;36795;45.028;38.968;2024-02-23T06:57:49;52.53;;;30.30;;
49384;SDS011;36795;45.028;38.968;2024-02-23T07:00:36;57.20;;;29.40;;
49384;SDS011;36795;45.028;38.968;2024-02-23T07:03:22;56.67;;;29.58;;
49384;SDS011;36795;45.028;38.968;2024-02-23T07:06:08;57.53;;;30.30;;
49384;SDS011;36795;45.028;38.968;2024-02-23T07:08:56;57.00;;;31.23;;
49384;SDS011;36795;45.028;38.968;2024-02-23T07:11:42;54.95;;;30.62;;
49384;SDS011;36795;45.028;38.968;2024-02-23T07:14:30;59.50;;;30.88;;
49384;SDS011;36795;45.028;38.968;2024-02-23T07:17:17;53.75;;;30.02;;
49384;SDS011;36795;45.028;38.968;2024-02-23T07:20:03;52.03;;;26.90;;
49384;SDS011;36795;45.028;38.968;2024-02-23T07:22:51;48.63;;;26.40;;
49384;SDS011;36795;45.028;38.968;2024-02-23T07:25:37;47.10;;;26.87;;
49384;SDS011;36795;45.028;38.968;2024-02-23T07:28:23;48.75;;;26.62;;
49384;SDS011;36795;45.028;38.968;2024-02-23T07:31:09;46.00;;;26.80;;
49384;SDS011;36795;45.028;38.968;2024-02-23T07:33:56;50.75;;;25.50;;
49384;SDS011;36795;45.028;38.968;2024-02-23T07:36:42;49.83;;;28.40;;
49384;SDS011;36795;45.028;38.968;2024-02-23T07:39:28;51.55;;;27.20;;
49384;SDS011;36795;45.028;38.968;2024-02-23T07:42:14;46.63;;;26.20;;
49384;SDS011;36795;45.028;38.968;2024-02-23T07:45:04;44.45;;;25.85;;
49384;SDS011;36795;45.028;38.968;2024-02-23T07:47:51;53.72;;;30.05;;
49384;SDS011;36795;45.028;38.968;2024-02-23T07:50:37;47.55;;;28.00;;
49384;SDS011;36795;45.028;38.968;2024-02-23T07:53:23;47.25;;;27.45;;
49384;SDS011;36795;45.028;38.968;2024-02-23T07:56:10;46.55;;;25.65;;
49384;SDS011;36795;45.028;38.968;2024-02-23T07:58:57;44.97;;;25.73;;
49384;SDS011;36795;45.028;38.968;2024-02-23T08:01:44;44.53;;;25.45;;
49384;SDS011;36795;45.028;38.968;2024-02-23T08:04:30;38.72;;;20.88;;
49384;SDS011;36795;45.028;38.968;2024-02-23T08:07:16;34.90;;;19.83;;
49384;SDS011;36795;45.028;38.968;2024-02-23T08:10:02;33.55;;;18.73;;
49384;SDS011;36795;45.028;38.968;2024-02-23T08:12:50;36.55;;;20.45;;
49384;SDS011;36795;45.028;38.968;2024-02-23T08:15:36;36.08;;;20.60;;
49384;SDS011;36795;45.028;38.968;2024-02-23T08:18:22;35.90;;;19.10;;
49384;SDS011;36795;45.028;38.968;2024-02-23T08:21:09;34.95;;;18.77;;
49384;SDS011;36795;45.028;38.968;2024-02-23T08:23:55;42.78;;;22.83;;
49384;SDS011;36795;45.028;38.968;2024-02-23T08:26:42;35.60;;;21.12;;
49384;SDS011;36795;45.028;38.968;2024-02-23T08:29:28;37.88;;;21.65;;
49384;SDS011;36795;45.028;38.968;2024-02-23T08:32:14;36.67;;;22.15;;
49384;SDS011;36795;45.028;38.968;2024-02-23T08:35:00;36.65;;;21.30;;
49384;SDS011;36795;45.028;38.968;2024-02-23T08:37:46;37.10;;;23.60;;
49384;SDS011;36795;45.028;38.968;2024-02-23T08:40:34;36.97;;;19.95;;
49384;SDS011;36795;45.028;38.968;2024-02-23T08:43:20;36.15;;;19.92;;
49384;SDS011;36795;45.028;38.968;2024-02-23T08:46:06;43.05;;;22.20;;
49384;SDS011;36795;45.028;38.968;2024-02-23T08:48:53;35.67;;;16.60;;
49384;SDS011;36795;45.028;38.968;2024-02-23T08:51:38;32.47;;;18.35;;
49384;SDS011;36795;45.028;38.968;2024-02-23T08:54:25;34.25;;;18.92;;
49384;SDS011;36795;45.028;38.968;2024-02-23T08:57:11;33.22;;;17.83;;
49384;SDS011;36795;45.028;38.968;2024-02-23T08:59:57;29.73;;;16.58;;
49384;SDS011;36795;45.028;38.968;2024-02-23T09:02:43;30.75;;;17.42;;
49384;SDS011;36795;45.028;38.968;2024-02-23T09:05:29;32.60;;;17.33;;
49384;SDS011;36795;45.028;38.968;2024-02-23T09:08:15;29.45;;;16.30;;
49384;SDS011;36795;45.028;38.968;2024-02-23T09:11:01;30.37;;;16.77;;
49384;SDS011;36795;45.028;38.968;2024-02-23T09:13:47;28.85;;;14.68;;
49384;SDS011;36795;45.028;38.968;2024-02-23T09:16:34;33.10;;;17.37;;
49384;SDS011;36795;45.028;38.968;2024-02-23T09:19:19;31.10;;;15.57;;
49384;SDS011;36795;45.028;38.968;2024-02-23T09:22:05;27.33;;;14.32;;
49384;SDS011;36795;45.028;38.968;2024-02-23T09:24:52;29.42;;;14.60;;
49384;SDS011;36795;45.028;38.968;2024-02-23T09:27:38;25.50;;;13.45;;
49384;SDS011;36795;45.028;38.968;2024-02-23T09:30:28;28.12;;;14.32;;
49384;SDS011;36795;45.028;38.968;2024-02-23T09:33:14;26.83;;;13.32;;
49384;SDS011;36795;45.028;38.968;2024-02-23T09:36:00;31.10;;;13.52;;
49384;SDS011;36795;45.028;38.968;2024-02-23T09:38:46;30.90;;;14.18;;
49384;SDS011;36795;45.028;38.968;2024-02-23T09:41:33;29.12;;;12.40;;
49384;SDS011;36795;45.028;38.968;2024-02-23T09:44:21;24.70;;;11.23;;
49384;SDS011;36795;45.028;38.968;2024-02-23T09:47:08;25.58;;;11.52;;
49384;SDS011;36795;45.028;38.968;2024-02-23T09:49:56;23.38;;;10.20;;
49384;SDS011;36795;45.028;38.968;2024-02-23T09:52:43;25.17;;;11.73;;
49384;SDS011;36795;45.028;38.968;2024-02-23T09:55:31;35.03;;;15.02;;
49384;SDS011;36795;45.028;38.968;2024-02-23T09:58:17;32.90;;;15.25;;
49384;SDS011;36795;45.028;38.968;2024-02-23T10:01:05;38.03;;;13.95;;
49384;SDS011;36795;45.028;38.968;2024-02-23T10:03:51;30.17;;;12.55;;
49384;SDS011;36795;45.028;38.968;2024-02-23T10:06:38;27.40;;;13.48;;
49384;SDS011;36795;45.028;38.968;2024-02-23T10:09:24;26.10;;;12.55;;
49384;SDS011;36795;45.028;38.968;2024-02-23T10:12:10;31.15;;;13.32;;
49384;SDS011;36795;45.028;38.968;2024-02-23T10:14:56;29.20;;;13.93;;
49384;SDS011;36795;45.028;38.968;2024-02-23T10:17:42;28.08;;;13.32;;
49384;SDS011;36795;45.028;38.968;2024-02-23T10:20:28;27.42;;;11.27;;
49384;SDS011;36795;45.028;38.968;2024-02-23T10:23:14;28.83;;;11.60;;
49384;SDS011;36795;45.028;38.968;2024-02-23T10:26:00;27.17;;;12.68;;
49384;SDS011;36795;45.028;38.968;2024-02-23T10:28:46;25.45;;;12.55;;
49384;SDS011;36795;45.028;38.968;2024-02-23T10:31:34;27.70;;;13.55;;
49384;SDS011;36795;45.028;38.968;2024-02-23T10:34:27;28.83;;;14.15;;
49384;SDS011;36795;45.028;38.968;2024-02-23T10:37:16;27.23;;;10.85;;
49384;SDS011;36795;45.028;38.968;2024-02-23T10:40:02;30.77;;;11.93;;
49384;SDS011;36795;45.028;38.968;2024-02-23T10:42:51;23.65;;;10.60;;
49384;SDS011;36795;45.028;38.968;2024-02-23T10:45:42;27.27;;;11.12;;
49384;SDS011;36795;45.028;38.968;2024-02-23T10:48:29;24.85;;;10.27;;
49384;SDS011;36795;45.028;38.968;2024-02-23T10:51:15;24.40;;;10.52;;
49384;SDS011;36795;45.028;38.968;2024-02-23T10:54:02;25.88;;;10.50;;
49384;SDS011;36795;45.028;38.968;2024-02-23T10:56:51;25.80;;;10.18;;
49384;SDS011;36795;45.028;38.968;2024-02-23T10:59:41;25.10;;;10.32;;
49384;SDS011;36795;45.028;38.968;2024-02-23T11:02:27;24.15;;;10.15;;
49384;SDS011;36795;45.028;38.968;2024-02-23T11:05:16;24.85;;;9.57;;
49384;SDS011;36795;45.028;38.968;2024-02-23T11:08:05;25.83;;;10.38;;
49384;SDS011;36795;45.028;38.968;2024-02-23T11:10:52;24.65;;;9.77;;
49384;SDS011;36795;45.028;38.968;2024-02-23T11:13:38;21.95;;;8.20;;
49384;SDS011;36795;45.028;38.968;2024-02-23T11:16:25;24.80;;;9.02;;
49384;SDS011;36795;45.028;38.968;2024-02-23T11:19:12;25.58;;;9.75;;
49384;SDS011;36795;45.028;38.968;2024-02-23T11:22:00;23.08;;;8.68;;
49384;SDS011;36795;45.028;38.968;2024-02-23T11:24:48;23.48;;;8.82;;
49384;SDS011;36795;45.028;38.968;2024-02-23T11:27:36;23.92;;;9.00;;
49384;SDS011;36795;45.028;38.968;2024-02-23T11:30:25;23.12;;;9.05;;
49384;SDS011;36795;45.028;38.968;2024-02-23T11:33:12;23.90;;;9.25;;
49384;SDS011;36795;45.028;38.968;2024-02-23T11:36:07;22.65;;;8.52;;
49384;SDS011;36795;45.028;38.968;2024-02-23T11:38:54;21.37;;;7.95;;
49384;SDS011;36795;45.028;38.968;2024-02-23T11:41:42;21.17;;;7.40;;
49384;SDS011;36795;45.028;38.968;2024-02-23T11:44:29;20.55;;;6.55;;
49384;SDS011;36795;45.028;38.968;2024-02-23T11:47:14;20.17;;;6.80;;
49384;SDS011;36795;45.028;38.968;2024-02-23T11:50:03;19.48;;;6.22;;
49384;SDS011;36795;45.028;38.968;2024-02-23T11:52:51;19.85;;;6.87;;
49384;SDS011;36795;45.028;38.968;2024-02-23T11:55:38;20.83;;;7.45;;
49384;SDS011;36795;45.028;38.968;2024-02-23T11:58:24;20.08;;;6.62;;
49384;SDS011;36795;45.028;38.968;2024-02-23T12:01:11;20.10;;;6.55;;
49384;SDS011;36795;45.028;38.968;2024-02-23T12:03:57;21.33;;;7.28;;
49384;SDS011;36795;45.028;38.968;2024-02-23T12:06:43;25.33;;;10.45;;
49384;SDS011;36795;45.028;38.968;2024-02-23T12:09:30;19.87;;;7.00;;
49384;SDS011;36795;45.028;38.968;2024-02-23T12:12:17;21.05;;;6.68;;
49384;SDS011;36795;45.028;38.968;2024-02-23T12:15:05;20.52;;;6.53;;
49384;SDS011;36795;45.028;38.968;2024-02-23T12:17:51;21.52;;;6.62;;
49384;SDS011;36795;45.028;38.968;2024-02-23T12:20:37;22.08;;;6.90;;
49384;SDS011;36795;45.028;38.968;2024-02-23T12:23:23;26.95;;;7.32;;
49384;SDS011;36795;45.028;38.968;2024-02-23T12:26:10;22.37;;;7.70;;
49384;SDS011;36795;45.028;38.968;2024-02-23T12:29:00;22.27;;;7.90;;
49384;SDS011;36795;45.028;38.968;2024-02-23T12:31:48;22.00;;;7.12;;
49384;SDS011;36795;45.028;38.968;2024-02-23T12:34:34;20.02;;;6.57;;
49384;SDS011;36795;45.028;38.968;2024-02-23T12:37:20;23.58;;;8.27;;
49384;SDS011;36795;45.028;38.968;2024-02-23T12:40:10;23.70;;;8.35;;
49384;SDS011;36795;45.028;38.968;2024-02-23T12:42:56;23.92;;;8.23;;
49384;SDS011;36795;45.028;38.968;2024-02-23T12:45:42;22.70;;;7.15;;
49384;SDS011;36795;45.028;38.968;2024-02-23T12:48:34;22.70;;;7.85;;
49384;SDS011;36795;45.028;38.968;2024-02-23T12:51:24;24.35;;;7.72;;
49384;SDS011;36795;45.028;38.968;2024-02-23T12:54:12;25.75;;;8.18;;
49384;SDS011;36795;45.028;38.968;2024-02-23T12:56:58;23.55;;;8.60;;
49384;SDS011;36795;45.028;38.968;2024-02-23T12:59:44;23.10;;;8.60;;
49384;SDS011;36795;45.028;38.968;2024-02-23T13:02:30;23.70;;;8.57;;
49384;SDS011;36795;45.028;38.968;2024-02-23T13:05:17;27.50;;;10.68;;
49384;SDS011;36795;45.028;38.968;2024-02-23T13:08:02;27.25;;;9.30;;
49384;SDS011;36795;45.028;38.968;2024-02-23T13:10:49;27.35;;;11.12;;
49384;SDS011;36795;45.028;38.968;2024-02-23T13:13:35;24.58;;;8.48;;
49384;SDS011;36795;45.028;38.968;2024-02-23T13:16:22;26.12;;;8.80;;
49384;SDS011;36795;45.028;38.968;2024-02-23T13:19:08;24.67;;;9.43;;
49384;SDS011;36795;45.028;38.968;2024-02-23T13:21:54;22.20;;;7.85;;
49384;SDS011;36795;45.028;38.968;2024-02-23T13:24:40;28.25;;;8.20;;
49384;SDS011;36795;45.028;38.968;2024-02-23T13:27:27;27.25;;;7.93;;
49384;SDS011;36795;45.028;38.968;2024-02-23T13:30:15;20.98;;;8.02;;
49384;SDS011;36795;45.028;38.968;2024-02-23T13:33:01;22.70;;;7.78;;
49384;SDS011;36795;45.028;38.968;2024-02-23T13:35:47;21.15;;;6.78;;
49384;SDS011;36795;45.028;38.968;2024-02-23T13:38:34;22.42;;;7.90;;
49384;SDS011;36795;45.028;38.968;2024-02-23T13:41:23;24.37;;;8.18;;
49384;SDS011;36795;45.028;38.968;2024-02-23T13:44:09;26.83;;;8.23;;
49384;SDS011;36795;45.028;38.968;2024-02-23T13:46:55;23.65;;;7.62;;
49384;SDS011;36795;45.028;38.968;2024-02-23T13:49:41;22.80;;;7.45;;
49384;SDS011;36795;45.028;38.968;2024-02-23T13:52:27;22.30;;;7.45;;
49384;SDS011;36795;45.028;38.968;2024-02-23T13:55:13;23.40;;;7.93;;
49384;SDS011;36795;45.028;38.968;2024-02-23T13:57:59;22.80;;;8.32;;
49384;SDS011;36795;45.028;38.968;2024-02-23T14:00:46;23.85;;;7.60;;
49384;SDS011;36795;45.028;38.968;2024-02-23T14:03:32;23.20;;;8.57;;
49384;SDS011;36795;45.028;38.968;2024-02-23T14:06:18;24.45;;;9.45;;
49384;SDS011;36795;45.028;38.968;2024-02-23T14:09:04;26.37;;;9.80;;
49384;SDS011;36795;45.028;38.968;2024-02-23T14:11:51;27.17;;;10.25;;
49384;SDS011;36795;45.028;38.968;2024-02-23T14:14:37;38.72;;;17.73;;
49384;SDS011;36795;45.028;38.968;2024-02-23T14:17:23;34.72;;;16.20;;
49384;SDS011;36795;45.028;38.968;2024-02-23T14:20:10;31.20;;;13.95;;
49384;SDS011;36795;45.028;38.968;2024-02-23T14:22:57;28.30;;;12.73;;
49384;SDS011;36795;45.028;38.968;2024-02-23T14:25:43;30.40;;;13.23;;
49384;SDS011;36795;45.028;38.968;2024-02-23T14:28:29;28.05;;;12.27;;
49384;SDS011;36795;45.028;38.968;2024-02-23T14:31:16;28.00;;;11.60;;
49384;SDS011;36795;45.028;38.968;2024-02-23T14:34:01;25.73;;;10.15;;
49384;SDS011;36795;45.028;38.968;2024-02-23T14:36:48;24.83;;;9.25;;
49384;SDS011;36795;45.028;38.968;2024-02-23T14:39:34;28.75;;;10.35;;
49384;SDS011;36795;45.028;38.968;2024-02-23T14:42:21;27.98;;;8.80;;
49384;SDS011;36795;45.028;38.968;2024-02-23T14:45:06;21.55;;;7.95;;
49384;SDS011;36795;45.028;38.968;2024-02-23T14:47:53;23.73;;;8.25;;
49384;SDS011;36795;45.028;38.968;2024-02-23T14:50:39;44.65;;;11.23;;
49384;SDS011;36795;45.028;38.968;2024-02-23T14:53:26;39.60;;;10.40;;
49384;SDS011;36795;45.028;38.968;2024-02-23T14:56:11;24.80;;;9.07;;
49384;SDS011;36795;45.028;38.968;2024-02-23T14:58:58;23.38;;;9.13;;
49384;SDS011;36795;45.028;38.968;2024-02-23T15:01:46;25.67;;;10.07;;
49384;SDS011;36795;45.028;38.968;2024-02-23T15:04:32;31.33;;;12.80;;
49384;SDS011;36795;45.028;38.968;2024-02-23T15:07:18;27.67;;;11.90;;
49384;SDS011;36795;45.028;38.968;2024-02-23T15:10:05;29.67;;;12.85;;
49384;SDS011;36795;45.028;38.968;2024-02-23T15:12:53;32.95;;;14.43;;
49384;SDS011;36795;45.028;38.968;2024-02-23T15:15:39;40.12;;;16.60;;
49384;SDS011;36795;45.028;38.968;2024-02-23T15:18:25;42.03;;;19.87;;
49384;SDS011;36795;45.028;38.968;2024-02-23T15:21:11;43.28;;;23.80;;
49384;SDS011;36795;45.028;38.968;2024-02-23T15:24:00;47.22;;;25.08;;
49384;SDS011;36795;45.028;38.968;2024-02-23T15:26:46;46.78;;;24.08;;
49384;SDS011;36795;45.028;38.968;2024-02-23T15:29:32;51.53;;;26.42;;
49384;SDS011;36795;45.028;38.968;2024-02-23T15:32:18;49.20;;;22.23;;
49384;SDS011;36795;45.028;38.968;2024-02-23T15:35:05;49.67;;;25.95;;
49384;SDS011;36795;45.028;38.968;2024-02-23T15:37:51;54.25;;;21.20;;
49384;SDS011;36795;45.028;38.968;2024-02-23T15:40:37;46.22;;;19.20;;
49384;SDS011;36795;45.028;38.968;2024-02-23T15:43:24;41.10;;;19.27;;
49384;SDS011;36795;45.028;38.968;2024-02-23T15:46:12;38.50;;;17.90;;
49384;SDS011;36795;45.028;38.968;2024-02-23T15:48:58;37.08;;;17.90;;
49384;SDS011;36795;45.028;38.968;2024-02-23T15:51:45;39.47;;;18.65;;
49384;SDS011;36795;45.028;38.968;2024-02-23T15:54:32;44.92;;;19.10;;
49384;SDS011;36795;45.028;38.968;2024-02-23T15:57:18;45.03;;;21.02;;
49384;SDS011;36795;45.028;38.968;2024-02-23T16:00:07;53.30;;;23.65;;
49384;SDS011;36795;45.028;38.968;2024-02-23T16:02:55;55.30;;;24.55;;
49384;SDS011;36795;45.028;38.968;2024-02-23T16:05:41;51.25;;;24.33;;
49384;SDS011;36795;45.028;38.968;2024-02-23T16:08:44;43.87;;;20.48;;
49384;SDS011;36795;45.028;38.968;2024-02-23T16:11:31;49.42;;;23.20;;
49384;SDS011;36795;45.028;38.968;2024-02-23T16:14:18;44.10;;;20.90;;
49384;SDS011;36795;45.028;38.968;2024-02-23T16:17:04;41.40;;;19.90;;